createdAt,value
2019-01-12T00:01:15.034Z,6.40
2019-01-12T00:03:46.625Z,6.40
2019-01-12T00:06:18.436Z,6.40
2019-01-12T00:08:50.906Z,6.40
2019-01-12T00:11:22.564Z,6.40
2019-01-12T00:13:53.984Z,6.40
2019-01-12T00:16:25.730Z,6.40
2019-01-12T00:18:57.498Z,6.40
2019-01-12T00:21:29.163Z,6.40
2019-01-12T00:24:00.818Z,6.40
2019-01-12T00:26:32.283Z,6.40
2019-01-12T00:29:03.836Z,6.30
2019-01-12T00:31:35.641Z,6.40
2019-01-12T00:34:07.209Z,6.30
2019-01-12T00:36:38.895Z,6.30
2019-01-12T00:39:10.598Z,6.30
2019-01-12T00:41:42.285Z,6.40
2019-01-12T00:44:13.977Z,6.40
2019-01-12T00:46:45.743Z,6.30
2019-01-12T00:49:17.379Z,6.30
2019-01-12T00:51:49.010Z,6.30
2019-01-12T00:54:20.735Z,6.30
2019-01-12T00:56:52.436Z,6.30
2019-01-12T00:59:23.956Z,6.30
2019-01-12T01:01:55.196Z,6.30
2019-01-12T01:04:26.491Z,6.30
2019-01-12T01:06:58.157Z,6.30
2019-01-12T01:09:29.889Z,6.30
2019-01-12T01:12:01.467Z,6.30
2019-01-12T01:14:33.060Z,6.30
2019-01-12T01:17:04.867Z,6.30
2019-01-12T01:19:36.492Z,6.30
2019-01-12T01:22:08.044Z,6.30
2019-01-12T01:24:45.767Z,6.30
2019-01-12T01:27:13.090Z,6.30
2019-01-12T01:29:44.710Z,6.30
2019-01-12T01:32:16.313Z,6.30
2019-01-12T01:34:47.817Z,6.30
2019-01-12T01:37:19.358Z,6.30
2019-01-12T01:39:52.028Z,6.30
2019-01-12T01:42:23.609Z,6.30
2019-01-12T01:44:55.942Z,6.20
2019-01-12T01:47:27.749Z,6.20
2019-01-12T01:50:00.172Z,6.20
2019-01-12T01:52:31.755Z,6.10
2019-01-12T01:55:03.328Z,6.10
2019-01-12T01:57:34.939Z,6.10
2019-01-12T02:00:09.967Z,6.10
2019-01-12T02:02:43.107Z,6.10
2019-01-12T02:05:15.006Z,6.10
2019-01-12T02:07:46.612Z,6.10
2019-01-12T02:10:20.348Z,6.10
2019-01-12T02:12:51.971Z,6.10
2019-01-12T02:15:24.162Z,6.10
2019-01-12T02:17:55.749Z,6.10
2019-01-12T02:20:27.233Z,6.10
2019-01-12T02:22:58.538Z,6.20
2019-01-12T02:25:30.244Z,6.20
2019-01-12T02:28:01.966Z,6.20
2019-01-12T02:30:33.266Z,6.20
2019-01-12T02:33:04.951Z,6.20
2019-01-12T02:35:36.554Z,6.20
2019-01-12T02:38:08.258Z,6.20
2019-01-12T02:40:40.886Z,6.20
2019-01-12T02:43:12.723Z,6.20
2019-01-12T02:45:44.716Z,6.10
2019-01-12T02:48:16.305Z,6.10
2019-01-12T02:50:48.083Z,6.10
2019-01-12T02:53:19.368Z,6.10
2019-01-12T02:55:51.077Z,6.10
2019-01-12T02:58:22.654Z,6.10
2019-01-12T03:00:54.179Z,6.10
2019-01-12T03:03:25.879Z,6.10
2019-01-12T03:05:57.493Z,6.10
2019-01-12T03:08:29.137Z,6.10
2019-01-12T03:11:01.796Z,6.00
2019-01-12T03:13:33.314Z,6.00
2019-01-12T03:16:05.239Z,6.00
2019-01-12T03:18:36.771Z,6.00
2019-01-12T03:21:08.391Z,6.00
2019-01-12T03:23:39.987Z,6.00
2019-01-12T03:26:11.722Z,6.00
2019-01-12T03:28:43.369Z,6.00
2019-01-12T03:31:14.930Z,6.00
2019-01-12T03:33:46.562Z,6.10
2019-01-12T03:36:18.300Z,6.00
2019-01-12T03:38:50.008Z,6.00
2019-01-12T03:41:22.766Z,6.00
2019-01-12T03:43:54.357Z,6.00
2019-01-12T03:46:26.174Z,6.00
2019-01-12T03:48:58.134Z,5.90
2019-01-12T03:51:29.608Z,5.90
2019-01-12T03:54:01.238Z,5.90
2019-01-12T03:56:32.966Z,5.90
2019-01-12T03:59:04.669Z,5.90
2019-01-12T04:01:36.218Z,5.90
2019-01-12T04:04:07.874Z,5.90
2019-01-12T04:06:39.429Z,5.90
2019-01-12T04:09:11.159Z,5.90
2019-01-12T04:11:42.935Z,5.90
2019-01-12T04:14:14.611Z,5.90
2019-01-12T04:16:46.791Z,5.80
2019-01-12T04:19:18.472Z,5.80
2019-01-12T04:21:50.354Z,5.80
2019-01-12T04:24:22.121Z,5.80
2019-01-12T04:26:54.343Z,5.80
2019-01-12T04:29:25.773Z,5.80
2019-01-12T04:31:57.437Z,5.80
2019-01-12T04:34:29.046Z,5.80
2019-01-12T04:37:00.462Z,5.80
2019-01-12T04:39:32.276Z,5.80
2019-01-12T04:42:05.872Z,5.80
2019-01-12T04:44:37.155Z,5.80
2019-01-12T04:47:09.703Z,5.80
2019-01-12T04:49:41.481Z,5.80
2019-01-12T04:52:13.094Z,5.80
2019-01-12T04:54:44.588Z,5.80
2019-01-12T04:57:16.299Z,5.80
2019-01-12T04:59:47.722Z,5.80
2019-01-12T05:02:19.335Z,5.80
2019-01-12T05:04:50.937Z,5.80
2019-01-12T05:07:22.571Z,5.80
2019-01-12T05:09:54.149Z,5.80
2019-01-12T05:12:25.843Z,5.80
2019-01-12T05:14:57.006Z,5.80
2019-01-12T05:17:28.782Z,5.70
2019-01-12T05:20:00.946Z,5.70
2019-01-12T05:22:32.640Z,5.70
2019-01-12T05:25:04.558Z,5.70
2019-01-12T05:27:36.158Z,5.60
2019-01-12T05:30:09.032Z,5.70
2019-01-12T05:32:40.556Z,5.70
2019-01-12T05:35:12.147Z,5.60
2019-01-12T05:37:44.794Z,5.70
2019-01-12T05:40:16.502Z,5.60
2019-01-12T05:42:49.495Z,5.60
2019-01-12T05:45:21.042Z,5.60
2019-01-12T05:47:52.614Z,5.60
2019-01-12T05:50:24.366Z,5.60
2019-01-12T05:52:55.774Z,5.60
2019-01-12T05:55:27.316Z,5.60
2019-01-12T05:57:58.896Z,5.60
2019-01-12T06:00:30.489Z,5.60
2019-01-12T06:03:01.938Z,5.60
2019-01-12T06:05:33.701Z,5.60
2019-01-12T06:08:05.887Z,5.60
2019-01-12T06:10:37.362Z,5.60
2019-01-12T06:13:08.925Z,5.50
2019-01-12T06:15:40.550Z,5.60
2019-01-12T06:18:12.266Z,5.50
2019-01-12T06:20:43.741Z,5.50
2019-01-12T06:23:15.541Z,5.50
2019-01-12T06:25:47.269Z,5.50
2019-01-12T06:28:18.868Z,5.50
2019-01-12T06:30:50.592Z,5.50
2019-01-12T06:33:23.755Z,5.50
2019-01-12T06:35:55.286Z,5.50
2019-01-12T06:38:28.315Z,5.50
2019-01-12T06:40:59.933Z,5.60
2019-01-12T06:43:31.514Z,5.60
2019-01-12T06:46:04.677Z,5.50
2019-01-12T06:48:36.537Z,5.60
2019-01-12T06:51:08.611Z,5.50
2019-01-12T06:53:40.154Z,5.60
2019-01-12T06:56:11.813Z,5.60
2019-01-12T06:58:43.476Z,5.50
2019-01-12T07:01:15.037Z,5.50
2019-01-12T07:03:46.743Z,5.50
2019-01-12T07:06:18.138Z,5.60
2019-01-12T07:08:49.708Z,5.50
2019-01-12T07:11:21.344Z,5.50
2019-01-12T07:13:55.642Z,5.60
2019-01-12T07:16:30.288Z,5.50
2019-01-12T07:19:01.876Z,5.50
2019-01-12T07:21:33.487Z,5.50
2019-01-12T07:24:05.070Z,5.50
2019-01-12T07:26:36.503Z,5.50
2019-01-12T07:29:08.550Z,5.50
2019-01-12T07:31:40.200Z,5.60
2019-01-12T07:34:11.913Z,5.50
2019-01-12T07:36:43.653Z,5.50
2019-01-12T07:39:16.809Z,5.50
2019-01-12T10:50:03.258Z,6.00
2019-01-12T10:52:34.315Z,5.90
2019-01-12T10:55:05.833Z,5.90
2019-01-12T10:57:36.659Z,5.90
2019-01-12T11:00:16.094Z,5.80
2019-01-12T11:02:46.947Z,5.80
2019-01-12T11:05:18.182Z,5.70
2019-01-12T11:07:49.071Z,5.70
2019-01-12T11:10:20.233Z,5.70
2019-01-12T11:12:52.249Z,5.70
2019-01-12T11:15:24.100Z,5.70
2019-01-12T11:17:54.958Z,5.60
2019-01-12T11:20:25.785Z,5.60
2019-01-12T11:22:56.680Z,5.60
2019-01-12T11:25:27.476Z,5.60
2019-01-12T11:27:58.326Z,5.50
2019-01-12T11:30:29.353Z,5.50
2019-01-12T11:33:12.074Z,5.50
2019-01-12T11:35:42.917Z,5.60
2019-01-12T11:38:36.248Z,5.50
2019-01-12T11:41:07.147Z,5.50
2019-01-12T11:43:37.981Z,5.50
2019-01-12T11:46:08.883Z,5.50
2019-01-12T11:48:39.927Z,5.50
2019-01-12T11:51:13.227Z,5.50
2019-01-12T11:53:44.045Z,5.50
2019-01-12T11:56:14.829Z,5.50
2019-01-12T11:58:45.655Z,5.50
2019-01-12T12:01:19.734Z,5.50
2019-01-12T12:03:52.158Z,5.50
2019-01-12T12:06:23.016Z,5.60
2019-01-12T12:08:53.927Z,5.60
2019-01-12T12:11:24.758Z,5.50
2019-01-12T12:13:55.647Z,5.50
2019-01-12T12:16:26.458Z,5.60
2019-01-12T12:18:57.351Z,5.60
2019-01-12T12:21:28.209Z,5.60
2019-01-12T12:23:59.086Z,5.60
2019-01-12T12:26:29.885Z,5.60
2019-01-12T12:29:00.849Z,5.60
2019-01-12T12:31:31.670Z,5.60
2019-01-12T12:34:02.572Z,5.60
2019-01-12T12:36:33.439Z,5.60
2019-01-12T12:39:06.255Z,5.60
2019-01-12T12:41:37.324Z,5.70
2019-01-12T12:44:08.239Z,5.60
2019-01-12T12:46:39.048Z,5.60
2019-01-12T12:49:10.982Z,5.60
2019-01-12T12:51:42.399Z,5.70
2019-01-12T12:54:13.445Z,5.70
2019-01-12T12:56:46.449Z,5.70
2019-01-12T12:59:17.367Z,5.70
2019-01-12T13:01:48.259Z,5.70
2019-01-12T13:04:19.195Z,5.80
2019-01-12T13:06:50.123Z,5.80
2019-01-12T13:09:20.916Z,5.80
2019-01-12T13:11:51.836Z,5.80
2019-01-12T13:14:22.721Z,5.80
2019-01-12T13:16:53.572Z,5.80
2019-01-12T13:19:24.546Z,5.80
2019-01-12T13:21:55.456Z,5.90
2019-01-12T13:24:26.270Z,5.80
2019-01-12T13:26:57.222Z,5.90
2019-01-12T13:29:27.979Z,5.90
2019-01-12T13:31:58.810Z,5.90
2019-01-12T13:34:29.794Z,6.00
2019-01-12T13:37:00.690Z,6.00
2019-01-12T13:39:32.148Z,6.00
2019-01-12T13:42:03.404Z,6.00
2019-01-12T13:44:34.224Z,6.00
2019-01-12T13:47:05.210Z,6.10
2019-01-12T13:49:36.035Z,6.10
2019-01-12T13:52:08.365Z,6.10
2019-01-12T13:54:39.223Z,6.10
2019-01-12T13:57:10.020Z,6.20
2019-01-12T13:59:40.822Z,6.20
2019-01-12T14:02:11.805Z,6.30
2019-01-12T14:04:42.632Z,6.20
2019-01-12T14:07:13.443Z,6.30
2019-01-12T14:09:44.303Z,6.30
2019-01-12T14:12:15.209Z,6.30
2019-01-12T14:14:46.013Z,6.30
2019-01-12T14:17:16.853Z,6.30
2019-01-12T14:19:48.744Z,6.40
2019-01-12T14:22:19.854Z,6.40
2019-01-12T14:24:50.672Z,6.40
2019-01-12T14:27:22.618Z,6.50
2019-01-12T14:29:53.459Z,6.50
2019-01-12T14:32:24.383Z,6.60
2019-01-12T14:34:55.278Z,6.60
2019-01-12T14:37:26.192Z,6.70
2019-01-12T14:39:57.312Z,6.70
2019-01-12T14:42:28.158Z,6.70
2019-01-12T14:44:59.093Z,6.70
2019-01-12T14:47:30.186Z,6.80
2019-01-12T14:50:01.548Z,6.80
2019-01-12T14:52:34.765Z,6.70
2019-01-12T14:55:07.259Z,6.80
2019-01-12T14:57:39.990Z,6.80
2019-01-12T15:00:29.992Z,6.80
2019-01-12T15:03:00.897Z,6.90
2019-01-12T15:05:33.275Z,6.90
2019-01-12T15:08:04.619Z,6.90
2019-01-12T15:10:37.306Z,7.00
2019-01-12T15:13:08.225Z,7.00
2019-01-12T15:15:39.061Z,7.10
2019-01-12T15:18:09.908Z,7.10
2019-01-12T15:20:40.911Z,7.10
2019-01-12T15:23:11.885Z,7.10
2019-01-12T15:25:42.787Z,7.00
2019-01-12T15:28:13.756Z,7.10
2019-01-12T15:30:44.715Z,7.10
2019-01-12T15:33:15.754Z,7.10
2019-01-12T15:35:46.982Z,7.10
2019-01-12T15:38:17.891Z,7.10
2019-01-12T15:40:49.771Z,7.10
2019-01-12T15:43:20.615Z,7.10
2019-01-12T15:45:51.575Z,7.10
2019-01-12T15:48:22.576Z,7.10
2019-01-12T15:50:53.576Z,7.10
2019-01-12T15:53:26.555Z,7.10
2019-01-12T15:55:57.477Z,7.10
2019-01-12T15:58:30.663Z,7.10
2019-01-12T16:01:01.490Z,7.10
2019-01-12T16:03:32.313Z,7.10
2019-01-12T16:06:03.185Z,7.10
2019-01-12T16:08:34.212Z,7.10
2019-01-12T16:11:05.329Z,7.10
2019-01-12T16:13:36.541Z,7.10
2019-01-12T16:16:07.450Z,7.10
2019-01-12T16:18:38.477Z,7.10
2019-01-12T16:21:09.319Z,7.00
2019-01-12T16:23:40.177Z,7.00
2019-01-12T16:26:11.137Z,6.90
2019-01-12T16:28:42.162Z,6.90
2019-01-12T16:31:13.114Z,6.90
2019-01-12T16:36:41.110Z,6.90
2019-01-12T16:39:11.975Z,6.80
2019-01-12T16:41:42.896Z,6.80
2019-01-12T16:44:13.733Z,6.80
2019-01-12T16:46:44.573Z,6.80
2019-01-12T16:49:15.478Z,6.90
2019-01-12T16:51:46.341Z,6.80
2019-01-12T16:54:17.380Z,6.80
2019-01-12T16:56:49.367Z,6.80
2019-01-12T16:59:20.212Z,6.80
2019-01-12T17:01:50.977Z,6.80
2019-01-12T17:04:21.770Z,6.80
2019-01-12T17:06:52.537Z,6.80
2019-01-12T17:09:23.412Z,6.80
2019-01-12T17:11:54.251Z,6.80
2019-01-12T17:14:26.035Z,6.80
2019-01-12T17:16:56.832Z,6.80
2019-01-12T17:19:29.580Z,6.80
2019-01-12T17:22:01.481Z,6.80
2019-01-12T17:24:32.591Z,6.80
2019-01-12T17:27:03.494Z,6.80
2019-01-12T17:29:34.433Z,6.80
2019-01-12T17:32:05.488Z,6.80
2019-01-12T17:34:37.672Z,6.80
2019-01-12T17:37:08.728Z,6.80
2019-01-12T17:39:50.199Z,6.80
2019-01-12T17:42:21.169Z,6.90
2019-01-12T17:44:51.991Z,6.90
2019-01-12T17:47:22.977Z,6.90
2019-01-12T17:49:54.147Z,6.90
2019-01-12T17:52:25.011Z,6.90
2019-01-12T17:54:56.805Z,7.00
2019-01-12T17:57:27.960Z,7.00
2019-01-12T17:59:58.946Z,7.00
2019-01-12T18:02:29.717Z,7.00
2019-01-12T18:05:02.384Z,7.00
2019-01-12T18:07:33.283Z,7.00
2019-01-12T18:10:05.429Z,7.00
2019-01-12T18:12:36.302Z,6.90
2019-01-12T18:15:09.349Z,7.00
2019-01-12T18:17:40.222Z,6.90
2019-01-12T18:20:12.951Z,6.90
2019-01-12T18:22:44.738Z,6.90
2019-01-12T18:25:16.887Z,6.90
2019-01-12T18:27:48.172Z,6.90
2019-01-12T18:30:20.189Z,6.90
2019-01-12T18:32:51.115Z,6.90
2019-01-12T18:35:22.214Z,6.90
2019-01-12T18:37:54.164Z,6.90
2019-01-12T18:40:25.164Z,6.90
2019-01-12T18:42:56.073Z,6.80
2019-01-12T18:45:27.098Z,6.80
2019-01-12T18:47:58.944Z,6.80
2019-01-12T18:50:30.497Z,6.80
2019-01-12T18:53:03.129Z,6.80
2019-01-12T18:55:35.178Z,6.80
2019-01-12T18:58:06.170Z,6.80
2019-01-12T19:00:37.118Z,6.80
2019-01-12T19:03:07.984Z,6.80
2019-01-12T19:05:39.259Z,6.80
2019-01-12T19:08:10.088Z,6.80
2019-01-12T19:10:40.995Z,6.90
2019-01-12T19:13:12.072Z,6.80
2019-01-12T19:15:42.921Z,6.80
2019-01-12T19:18:13.812Z,6.80
2019-01-12T19:20:44.624Z,6.80
2019-01-12T19:23:15.403Z,6.80
2019-01-12T19:25:46.321Z,6.80
2019-01-12T19:28:17.236Z,6.80
2019-01-12T19:30:48.171Z,6.90
2019-01-12T19:33:19.112Z,6.80
2019-01-12T19:35:49.907Z,6.80
2019-01-12T19:38:20.752Z,6.80
2019-01-12T19:40:51.690Z,6.80
2019-01-12T19:43:22.603Z,6.70
2019-01-12T19:45:53.631Z,6.70
2019-01-12T19:48:24.680Z,6.70
2019-01-12T19:50:55.734Z,6.70
2019-01-12T19:53:26.934Z,6.70
2019-01-12T19:55:58.345Z,6.70
2019-01-12T19:58:29.281Z,6.60
2019-01-12T20:01:01.746Z,6.60
2019-01-12T20:03:32.585Z,6.60
2019-01-12T20:06:05.045Z,6.60
2019-01-12T20:08:36.994Z,6.50
2019-01-12T20:11:07.920Z,6.50
2019-01-12T20:13:38.769Z,6.50
2019-01-12T20:16:12.608Z,6.60
2019-01-12T20:18:43.606Z,6.50
2019-01-12T20:21:14.569Z,6.50
2019-01-12T20:23:45.716Z,6.50
2019-01-12T20:26:17.637Z,6.50
2019-01-12T20:28:48.607Z,6.50
2019-01-12T20:31:53.035Z,6.40
2019-01-12T20:34:50.050Z,6.40
2019-01-12T20:38:10.237Z,6.40
2019-01-12T20:41:08.328Z,6.40
2019-01-12T20:44:23.153Z,6.40
2019-01-12T20:47:35.406Z,6.40
2019-01-12T20:50:44.584Z,6.40
2019-01-12T20:53:41.727Z,6.40
2019-01-12T20:57:15.985Z,6.40
2019-01-12T20:59:56.838Z,6.40
2019-01-12T21:03:17.518Z,6.40
2019-01-12T21:06:14.401Z,6.40
2019-01-12T21:09:17.797Z,6.40
2019-01-12T21:12:09.732Z,6.50
2019-01-12T21:15:24.452Z,6.50
2019-01-12T21:17:55.442Z,6.50
2019-01-12T21:20:26.846Z,6.50
2019-01-12T21:22:57.951Z,6.50
2019-01-12T21:25:28.878Z,6.50
2019-01-12T21:27:59.869Z,6.50
2019-01-12T21:30:30.804Z,6.50
2019-01-12T21:33:20.857Z,6.60
2019-01-12T21:35:55.498Z,6.50
2019-01-12T21:38:26.469Z,6.60
2019-01-12T21:40:57.430Z,6.60
2019-01-12T21:43:28.384Z,6.60
2019-01-12T21:46:00.556Z,6.60
2019-01-12T21:48:31.588Z,6.60
2019-01-12T21:51:02.572Z,6.60
2019-01-12T21:53:33.439Z,6.60
2019-01-12T21:56:04.639Z,6.50
2019-01-12T21:58:36.009Z,6.50
2019-01-12T22:01:07.331Z,6.60
2019-01-12T22:03:38.263Z,6.50
2019-01-12T22:06:09.349Z,6.60
2019-01-12T22:08:40.453Z,6.60
2019-01-12T22:11:12.379Z,6.60
2019-01-12T22:13:43.318Z,6.60
2019-01-12T22:16:14.399Z,6.60
2019-01-12T22:18:46.939Z,6.60
2019-01-12T22:21:17.896Z,6.60
2019-01-12T22:23:48.841Z,6.60
2019-01-12T22:26:19.875Z,6.60
2019-01-12T22:28:51.023Z,6.60
2019-01-12T22:31:23.090Z,6.60
2019-01-12T22:33:53.994Z,6.60
2019-01-12T22:36:25.186Z,6.60
2019-01-12T22:38:56.071Z,6.60
2019-01-12T22:41:27.051Z,6.60
2019-01-12T22:43:57.934Z,6.60
2019-01-12T22:46:28.943Z,6.50
2019-01-12T22:49:01.339Z,6.60
2019-01-12T22:51:35.122Z,6.60
2019-01-12T22:54:06.904Z,6.60
2019-01-12T22:56:38.140Z,6.60
2019-01-12T22:59:09.628Z,6.60
2019-01-12T23:02:03.121Z,6.60
2019-01-12T23:04:35.164Z,6.60
2019-01-12T23:07:11.425Z,6.60
2019-01-12T23:09:38.891Z,6.60
2019-01-12T23:12:09.957Z,6.70
2019-01-12T23:14:40.817Z,6.70
2019-01-12T23:17:11.791Z,6.70
2019-01-12T23:19:42.606Z,6.70
2019-01-12T23:22:13.631Z,6.60
2019-01-12T23:24:44.687Z,6.70
2019-01-12T23:27:15.594Z,6.60
2019-01-12T23:29:46.422Z,6.60
2019-01-12T23:32:17.361Z,6.70
2019-01-12T23:34:48.269Z,6.70
2019-01-12T23:37:19.361Z,6.70
2019-01-12T23:39:50.191Z,6.70
2019-01-12T23:42:21.004Z,6.70
2019-01-12T23:44:51.882Z,6.70
2019-01-12T23:47:22.851Z,6.70
2019-01-12T23:49:53.698Z,6.80
2019-01-12T23:52:24.650Z,6.70
2019-01-12T23:54:56.017Z,6.70
2019-01-12T23:57:26.876Z,6.80
2019-01-12T23:59:58.019Z,6.90
